Time;durP1;ratioP1;P1;durP2;ratioP2;P2;SDS_P1;SDS_P2;PMS_P1;PMS_P2;Temp;Humidity;BMP_temperature;BMP_pressure;BME280_temperature;BME280_humidity;BME280_pressure;Samples;Min_cycle;Max_cycle;Signal;HPM_P1;HPM_P2
2021/03/23 00:01:30;;;;;;;8.10;2.75;;;8.60;68.00;;;;;;2269113;56;20966;-64
2021/03/23 00:03:57;;;;;;;5.90;2.75;;;8.60;68.00;;;;;;2287570;56;20958;-67
2021/03/23 00:06:28;;;;;;;7.82;2.90;;;8.60;68.00;;;;;;2287858;56;20999;-66
2021/03/23 00:09:00;;;;;;;6.80;2.50;;;8.60;68.00;;;;;;2521696;55;21026;-66
2021/03/23 00:11:34;;;;;;;5.87;2.90;;;8.60;68.10;;;;;;2287578;56;21069;-65
2021/03/23 00:14:01;;;;;;;9.15;3.75;;;8.50;67.90;;;;;;2499381;55;21027;-64
2021/03/23 00:16:29;;;;;;;7.85;3.83;;;8.60;68.20;;;;;;2518271;55;20930;-66
2021/03/23 00:18:56;;;;;;;6.97;3.62;;;8.50;68.00;;;;;;2287857;56;21086;-67
2021/03/23 00:21:23;;;;;;;7.43;2.90;;;8.60;68.20;;;;;;2522796;55;20947;-66
2021/03/23 00:23:49;;;;;;;7.07;3.42;;;8.60;68.20;;;;;;2522619;55;20939;-67
2021/03/23 00:26:17;;;;;;;6.68;2.90;;;8.50;68.00;;;;;;2477485;55;20978;-68
2021/03/23 00:28:49;;;;;;;6.03;3.20;;;8.50;68.00;;;;;;2282541;56;21042;-67
2021/03/23 00:31:21;;;;;;;9.63;3.42;;;8.50;68.00;;;;;;2269615;56;21582;-66
2021/03/23 00:33:57;;;;;;;7.45;3.40;;;8.50;68.00;;;;;;2273919;55;21863;-65
2021/03/23 00:36:26;;;;;;;8.45;3.25;;;8.50;68.00;;;;;;2279663;56;21011;-66
2021/03/23 00:38:53;;;;;;;7.15;3.40;;;8.50;68.00;;;;;;2277736;56;21587;-65
2021/03/23 00:41:19;;;;;;;6.45;2.90;;;8.50;68.10;;;;;;2522841;55;21402;-64
2021/03/23 00:43:45;;;;;;;6.15;3.20;;;8.50;68.20;;;;;;2281929;55;20950;-67
2021/03/23 00:46:11;;;;;;;5.95;3.12;;;8.50;68.30;;;;;;2275159;56;20959;-65
2021/03/23 00:48:38;;;;;;;6.28;2.65;;;8.40;68.20;;;;;;2522758;55;20955;-67
2021/03/23 00:51:04;;;;;;;7.40;2.90;;;8.40;68.20;;;;;;2283563;55;21065;-66
2021/03/23 00:53:31;;;;;;;5.65;3.03;;;8.40;68.30;;;;;;2484952;55;20980;-66
2021/03/23 00:56:01;;;;;;;6.22;3.00;;;8.50;68.40;;;;;;2278758;56;20987;-66
2021/03/23 00:58:28;;;;;;;6.95;2.87;;;8.40;68.30;;;;;;2288174;56;21510;-65
2021/03/23 01:00:54;;;;;;;7.18;3.28;;;8.40;68.30;;;;;;2287597;56;20975;-68
2021/03/23 01:03:21;;;;;;;5.45;2.40;;;8.40;68.30;;;;;;2288149;56;21506;-65
2021/03/23 01:05:49;;;;;;;6.05;2.60;;;8.40;68.30;;;;;;2288439;56;20943;-66
2021/03/23 01:08:16;;;;;;;5.35;2.78;;;8.40;68.30;;;;;;2522877;55;21770;-66
2021/03/23 01:10:42;;;;;;;7.00;2.60;;;8.40;68.40;;;;;;2519889;55;21062;-65
2021/03/23 01:13:09;;;;;;;5.85;2.75;;;8.40;68.40;;;;;;2499881;55;21027;-67
2021/03/23 01:15:35;;;;;;;5.65;2.80;;;8.40;68.40;;;;;;2507684;55;20998;-66
2021/03/23 01:18:01;;;;;;;5.22;2.80;;;8.40;68.40;;;;;;2278163;55;21828;-66
2021/03/23 01:20:28;;;;;;;6.35;2.72;;;8.40;68.40;;;;;;2273601;55;20935;-65
2021/03/23 01:22:54;;;;;;;6.50;2.72;;;8.40;68.40;;;;;;2271964;55;20963;-66
2021/03/23 01:25:21;;;;;;;5.47;2.50;;;8.40;68.40;;;;;;2270255;55;20962;-67
2021/03/23 01:27:49;;;;;;;5.75;2.87;;;8.40;68.40;;;;;;2284535;56;21023;-66
2021/03/23 01:30:21;;;;;;;5.28;2.42;;;8.40;68.40;;;;;;2271682;55;21046;-66
2021/03/23 01:32:47;;;;;;;5.30;2.70;;;8.40;68.30;;;;;;2275567;55;21018;-66
2021/03/23 01:35:14;;;;;;;4.25;2.05;;;8.40;68.40;;;;;;2519597;55;21007;-67
2021/03/23 01:37:41;;;;;;;5.15;2.62;;;8.40;68.40;;;;;;2288002;56;20951;-66
2021/03/23 01:40:07;;;;;;;6.65;2.65;;;8.40;68.40;;;;;;2270145;56;21033;-65
2021/03/23 01:42:42;;;;;;;7.40;3.05;;;8.40;68.40;;;;;;2522102;55;20919;-66
2021/03/23 01:45:20;;;;;;;6.20;3.28;;;8.40;68.20;;;;;;2288202;56;20935;-67
2021/03/23 01:47:47;;;;;;;6.50;2.50;;;8.40;68.30;;;;;;2270196;55;21773;-65
2021/03/23 01:50:13;;;;;;;7.10;3.22;;;8.40;68.40;;;;;;2285656;56;21709;-66
2021/03/23 01:52:40;;;;;;;7.90;3.22;;;8.40;68.40;;;;;;2522794;55;20946;-64
2021/03/23 01:55:07;;;;;;;7.22;3.40;;;8.30;68.30;;;;;;2522242;55;20962;-66
2021/03/23 01:57:34;;;;;;;5.22;2.83;;;8.40;68.40;;;;;;2287512;56;20939;-66
2021/03/23 02:00:00;;;;;;;4.93;2.47;;;8.30;68.30;;;;;;2286881;56;20935;-64
2021/03/23 02:02:28;;;;;;;6.72;3.00;;;8.30;68.30;;;;;;2286730;56;21041;-66
2021/03/23 02:05:04;;;;;;;7.32;2.60;;;8.30;68.30;;;;;;2292927;56;21659;-66
2021/03/23 02:07:31;;;;;;;7.55;3.40;;;8.30;68.30;;;;;;2269762;55;21362;-66
2021/03/23 02:09:57;;;;;;;5.45;2.75;;;8.30;68.30;;;;;;2270677;56;21002;-65
2021/03/23 02:12:25;;;;;;;9.07;3.42;;;8.30;68.30;;;;;;2281855;55;20951;-65
2021/03/23 02:14:51;;;;;;;6.00;2.65;;;8.30;68.30;;;;;;2278578;55;21089;-66
2021/03/23 02:17:29;;;;;;;7.35;3.00;;;8.30;68.40;;;;;;2522531;55;21022;-65
2021/03/23 02:19:58;;;;;;;5.43;2.83;;;8.30;68.10;;;;;;2521377;55;20923;-66
2021/03/23 02:22:38;;;;;;;5.72;2.90;;;8.30;68.30;;;;;;2288450;56;21039;-65
2021/03/23 02:25:11;;;;;;;5.95;3.22;;;8.30;68.10;;;;;;2288282;55;21019;-65
2021/03/23 02:27:37;;;;;;;5.30;2.87;;;8.20;68.20;;;;;;2503477;55;21007;-66
2021/03/23 02:30:04;;;;;;;4.75;2.30;;;8.20;68.20;;;;;;2502962;55;21943;-67
2021/03/23 02:32:32;;;;;;;5.62;2.62;;;8.20;68.30;;;;;;2515598;55;20963;-66
2021/03/23 02:35:04;;;;;;;4.90;2.58;;;8.20;68.30;;;;;;2288655;56;20970;-67
2021/03/23 02:37:30;;;;;;;6.80;2.80;;;8.20;68.40;;;;;;2273666;55;21022;-67
2021/03/23 02:39:57;;;;;;;4.62;2.62;;;8.20;68.50;;;;;;2271399;55;21038;-65
2021/03/23 02:42:24;;;;;;;6.45;2.92;;;8.20;68.50;;;;;;2284861;56;20950;-66
2021/03/23 02:44:50;;;;;;;6.93;2.83;;;8.20;68.50;;;;;;2521153;55;21034;-65
2021/03/23 02:47:18;;;;;;;4.78;2.70;;;8.20;68.50;;;;;;2269558;56;20958;-66
2021/03/23 02:49:47;;;;;;;5.90;2.92;;;8.20;68.50;;;;;;2509373;55;20950;-66
2021/03/23 02:52:14;;;;;;;6.90;3.42;;;8.20;68.50;;;;;;2275999;56;21486;-67
2021/03/23 02:54:40;;;;;;;5.35;2.67;;;8.20;68.50;;;;;;2274996;55;21010;-67
2021/03/23 02:57:08;;;;;;;6.43;2.62;;;8.10;68.40;;;;;;2269228;56;20974;-67
2021/03/23 02:59:34;;;;;;;5.32;2.67;;;8.10;68.50;;;;;;2287875;56;20923;-66
2021/03/23 03:02:03;;;;;;;5.85;2.65;;;8.20;68.60;;;;;;2288053;56;21074;-66
2021/03/23 03:04:31;;;;;;;6.68;2.67;;;8.10;68.50;;;;;;2522397;55;21479;-67
2021/03/23 03:06:58;;;;;;;9.88;2.95;;;8.20;68.60;;;;;;2282702;56;20986;-65
2021/03/23 03:09:24;;;;;;;6.25;2.30;;;8.10;68.50;;;;;;2505952;55;21001;-67
2021/03/23 03:11:51;;;;;;;6.90;2.65;;;8.20;68.60;;;;;;2279023;55;20986;-66
2021/03/23 03:14:18;;;;;;;6.10;3.00;;;8.10;68.50;;;;;;2274679;55;20974;-66
2021/03/23 03:16:44;;;;;;;6.90;2.87;;;8.10;68.50;;;;;;2510553;55;20999;-67
2021/03/23 03:19:10;;;;;;;9.23;3.10;;;8.10;68.50;;;;;;2522471;55;21010;-67
2021/03/23 03:21:37;;;;;;;6.47;2.97;;;8.10;68.50;;;;;;2288269;56;20993;-67
2021/03/23 03:24:04;;;;;;;5.93;3.17;;;8.10;68.60;;;;;;2288258;56;20915;-67
2021/03/23 03:26:34;;;;;;;7.57;2.72;;;8.10;68.60;;;;;;2288553;56;20975;-64
2021/03/23 03:29:02;;;;;;;6.72;3.10;;;8.10;68.50;;;;;;2522106;55;20962;-67
2021/03/23 03:31:29;;;;;;;6.97;3.33;;;8.10;68.50;;;;;;2288333;56;20970;-64
2021/03/23 03:33:56;;;;;;;6.72;2.72;;;8.10;68.50;;;;;;2521179;55;20939;-65
2021/03/23 03:36:23;;;;;;;6.12;2.58;;;8.10;68.60;;;;;;2521110;55;21883;-65
2021/03/23 03:38:50;;;;;;;7.30;3.20;;;8.10;68.60;;;;;;2514425;55;21046;-67
2021/03/23 03:41:16;;;;;;;6.78;2.70;;;8.10;68.60;;;;;;2276098;55;21014;-66
2021/03/23 03:43:42;;;;;;;5.65;2.60;;;8.10;68.50;;;;;;2281128;56;21414;-66
2021/03/23 03:46:10;;;;;;;4.90;2.40;;;8.10;69.20;;;;;;2482929;55;20987;-66
2021/03/23 03:48:36;;;;;;;4.53;2.30;;;8.00;68.40;;;;;;2521358;55;20927;-66
2021/03/23 03:51:03;;;;;;;6.55;2.50;;;8.10;68.50;;;;;;2276761;55;20994;-67
2021/03/23 03:53:30;;;;;;;5.37;2.75;;;8.10;68.50;;;;;;2515827;55;21169;-65
2021/03/23 03:55:57;;;;;;;6.15;2.78;;;8.20;68.60;;;;;;2277255;55;20959;-65
2021/03/23 03:58:25;;;;;;;6.30;2.47;;;8.10;68.50;;;;;;2271233;55;21042;-66
2021/03/23 04:00:52;;;;;;;6.50;2.75;;;8.10;68.50;;;;;;2495439;55;21490;-64
2021/03/23 04:03:20;;;;;;;6.37;2.50;;;8.10;68.60;;;;;;2285716;56;21050;-65
2021/03/23 04:05:48;;;;;;;3.97;2.08;;;8.10;68.50;;;;;;2275476;56;21255;-67
2021/03/23 04:08:20;;;;;;;5.12;2.17;;;8.00;68.50;;;;;;2264043;56;21041;-66
2021/03/23 04:10:48;;;;;;;5.20;2.10;;;8.10;68.60;;;;;;2279983;56;20955;-67
2021/03/23 04:13:15;;;;;;;5.45;2.85;;;8.00;68.50;;;;;;2282418;56;21053;-66
2021/03/23 04:15:43;;;;;;;4.47;2.33;;;8.00;68.50;;;;;;2507436;55;21058;-64
2021/03/23 04:18:12;;;;;;;4.45;2.17;;;8.00;68.60;;;;;;2288418;56;21003;-67
2021/03/23 04:20:38;;;;;;;4.93;2.30;;;8.00;68.60;;;;;;2288789;56;20959;-67
2021/03/23 04:23:06;;;;;;;6.32;2.75;;;8.00;68.60;;;;;;2499024;55;21064;-65
2021/03/23 04:25:32;;;;;;;6.95;2.45;;;8.00;68.60;;;;;;2288020;56;20992;-68
2021/03/23 04:28:00;;;;;;;5.87;2.67;;;8.00;68.60;;;;;;2507061;55;21018;-64
2021/03/23 04:30:26;;;;;;;5.25;2.20;;;8.00;68.60;;;;;;2278274;56;20963;-67
2021/03/23 04:32:54;;;;;;;6.05;2.50;;;8.00;68.60;;;;;;2522490;55;20982;-67
2021/03/23 04:35:49;;;;;;;5.70;2.67;;;8.00;68.60;;;;;;2286787;56;21010;-66
2021/03/23 04:38:19;;;;;;;5.68;2.67;;;8.00;68.20;;;;;;2260710;56;21433;-67
2021/03/23 04:40:45;;;;;;;5.78;2.45;;;8.00;68.50;;;;;;2268126;56;20975;-67
2021/03/23 04:43:21;;;;;;;6.60;3.00;;;8.00;68.60;;;;;;2276949;56;21910;-64
2021/03/23 04:45:48;;;;;;;4.60;2.35;;;8.00;68.40;;;;;;2510718;55;21003;-64
2021/03/23 04:48:14;;;;;;;6.37;2.80;;;8.00;68.50;;;;;;2270595;56;20970;-67
2021/03/23 04:50:43;;;;;;;6.37;2.15;;;8.00;68.50;;;;;;2273761;56;21037;-65
2021/03/23 04:53:26;;;;;;;5.37;2.30;;;7.90;68.40;;;;;;2489242;55;21022;-66
2021/03/23 04:55:52;;;;;;;4.25;2.20;;;7.90;68.20;;;;;;2277154;56;20982;-66
2021/03/23 04:58:20;;;;;;;6.32;2.85;;;7.90;68.40;;;;;;2517368;55;21003;-65
2021/03/23 05:00:46;;;;;;;5.37;2.60;;;7.90;68.40;;;;;;2279441;56;21054;-67
2021/03/23 05:03:17;;;;;;;5.93;2.80;;;7.90;68.40;;;;;;2271092;55;21012;-67
2021/03/23 05:05:46;;;;;;;7.32;3.00;;;7.90;68.30;;;;;;2496066;55;21010;-67
2021/03/23 05:08:13;;;;;;;5.65;2.50;;;7.90;68.30;;;;;;2275259;56;21074;-65
2021/03/23 05:10:39;;;;;;;6.15;3.03;;;7.80;68.30;;;;;;2274247;55;21541;-67
2021/03/23 05:13:05;;;;;;;6.82;2.58;;;7.80;68.20;;;;;;2277855;56;20961;-66
2021/03/23 05:15:32;;;;;;;4.72;2.75;;;7.80;68.20;;;;;;2277436;56;21744;-65
2021/03/23 05:18:01;;;;;;;4.68;2.58;;;7.80;68.30;;;;;;2287850;56;20934;-66
2021/03/23 05:20:28;;;;;;;7.10;2.90;;;7.80;68.40;;;;;;2289365;56;20966;-65
2021/03/23 05:22:54;;;;;;;5.93;2.50;;;7.80;68.40;;;;;;2290378;55;20979;-67
2021/03/23 05:25:21;;;;;;;5.85;2.78;;;7.80;68.40;;;;;;2521732;55;20983;-65
2021/03/23 05:27:47;;;;;;;5.97;2.87;;;7.80;68.40;;;;;;2287493;56;20979;-65
2021/03/23 05:30:16;;;;;;;5.90;2.78;;;7.70;68.40;;;;;;2499297;55;21030;-66
2021/03/23 05:32:43;;;;;;;4.03;2.28;;;7.80;68.50;;;;;;2287020;55;21614;-65
2021/03/23 05:35:10;;;;;;;8.32;3.08;;;7.80;68.50;;;;;;2268235;56;20962;-66
2021/03/23 05:37:44;;;;;;;5.05;2.53;;;7.70;68.40;;;;;;2288889;55;21083;-65
2021/03/23 05:40:17;;;;;;;7.72;3.25;;;7.70;68.40;;;;;;2268857;56;20986;-66
2021/03/23 05:42:43;;;;;;;5.72;2.75;;;7.70;68.50;;;;;;2522330;55;21003;-65
2021/03/23 05:45:23;;;;;;;5.72;2.83;;;7.70;68.50;;;;;;2279689;55;20942;-67
2021/03/23 05:48:21;;;;;;;6.18;2.90;;;7.70;68.50;;;;;;2269416;56;21149;-65
2021/03/23 05:52:34;;;;;;;5.40;2.65;;;7.70;68.30;;;;;;2286541;56;20995;-67
2021/03/23 05:55:28;;;;;;;7.10;2.60;;;7.70;67.90;;;;;;2286687;55;21070;-66
2021/03/23 05:57:55;;;;;;;7.57;3.00;;;7.70;68.70;;;;;;2268606;56;21499;-66
2021/03/23 06:00:40;;;;;;;5.50;2.78;;;7.70;68.70;;;;;;2276379;56;21043;-65
2021/03/23 06:06:51;;;;;;;7.32;2.90;;;7.70;68.50;;;;;;2287218;56;20955;-66
2021/03/23 06:09:27;;;;;;;4.68;2.47;;;7.70;68.10;;;;;;2278039;55;20978;-66
2021/03/23 06:14:06;;;;;;;4.80;2.25;;;7.70;69.00;;;;;;2270342;56;20990;-64
2021/03/23 06:19:33;;;;;;;6.53;2.80;;;7.70;68.80;;;;;;2291247;55;22231;-64
2021/03/23 06:22:03;;;;;;;6.60;3.30;;;7.80;69.30;;;;;;2268596;56;21881;-65
2021/03/23 06:26:41;;;;;;;7.50;2.97;;;7.80;69.40;;;;;;2288368;56;20947;-65
2021/03/23 06:32:32;;;;;;;5.85;2.70;;;7.80;69.00;;;;;;2264096;56;20934;-65
2021/03/23 06:34:59;;;;;;;5.53;2.55;;;7.90;68.90;;;;;;2287976;56;20966;-66
2021/03/23 06:37:33;;;;;;;7.78;3.53;;;8.00;70.10;;;;;;2275105;56;21014;-65
2021/03/23 06:39:59;;;;;;;5.62;3.20;;;8.00;70.10;;;;;;2284879;56;21026;-66
2021/03/23 06:42:39;;;;;;;10.10;4.12;;;8.10;70.50;;;;;;2287761;56;20935;-66
2021/03/23 06:45:25;;;;;;;8.77;3.28;;;8.10;70.30;;;;;;2288379;56;20946;-68
2021/03/23 06:47:51;;;;;;;9.27;3.40;;;8.10;70.70;;;;;;2290922;56;21030;-66
2021/03/23 06:50:34;;;;;;;7.35;3.75;;;8.20;70.80;;;;;;2286849;56;21427;-67
2021/03/23 06:53:33;;;;;;;8.13;3.65;;;8.30;70.60;;;;;;2273089;56;20967;-66
2021/03/23 06:56:22;;;;;;;7.72;3.85;;;8.40;70.40;;;;;;2271303;56;21019;-66
2021/03/23 06:59:04;;;;;;;7.85;3.37;;;8.50;70.80;;;;;;2278088;56;21050;-65
2021/03/23 07:01:37;;;;;;;8.77;3.70;;;8.50;70.90;;;;;;2286667;56;21094;-65
2021/03/23 07:04:24;;;;;;;7.90;4.00;;;8.60;71.40;;;;;;2275271;55;20978;-67
2021/03/23 07:07:07;;;;;;;10.35;4.72;;;8.70;71.30;;;;;;2271848;55;21008;-66
2021/03/23 07:09:43;;;;;;;9.17;5.40;;;8.80;71.50;;;;;;2290859;56;20942;-67
2021/03/23 07:12:09;;;;;;;10.15;5.20;;;8.90;71.90;;;;;;2284769;56;20985;-65
2021/03/23 07:14:40;;;;;;;12.37;6.53;;;9.00;72.00;;;;;;2271747;56;20984;-65
2021/03/23 07:17:34;;;;;;;11.27;5.97;;;9.10;72.10;;;;;;2521718;55;20931;-66
2021/03/23 07:20:11;;;;;;;9.13;5.32;;;9.20;71.50;;;;;;2286581;55;22646;-67
2021/03/23 07:22:47;;;;;;;10.88;5.72;;;9.30;72.00;;;;;;2277105;56;21523;-67
2021/03/23 07:28:43;;;;;;;12.43;5.45;;;9.50;71.30;;;;;;2282879;56;20955;-66
2021/03/23 07:33:01;;;;;;;10.55;5.25;;;9.60;72.00;;;;;;2281297;55;20978;-66
2021/03/23 07:35:35;;;;;;;10.90;4.62;;;9.70;70.50;;;;;;2521235;55;21041;-66
2021/03/23 07:41:16;;;;;;;10.70;5.00;;;9.80;71.80;;;;;;2287658;56;20965;-66
2021/03/23 07:43:59;;;;;;;10.20;4.12;;;10.10;69.40;;;;;;2284009;56;21030;-66
2021/03/23 07:46:35;;;;;;;10.00;5.07;;;10.10;70.50;;;;;;2505536;55;21002;-66
2021/03/23 07:52:17;;;;;;;8.95;5.28;;;10.30;71.10;;;;;;2286828;56;20931;-66
2021/03/23 07:54:44;;;;;;;7.93;3.37;;;10.50;70.00;;;;;;2274020;56;21013;-65
2021/03/23 08:01:00;;;;;;;9.23;4.10;;;10.60;71.70;;;;;;2515521;55;22754;-66
2021/03/23 08:03:38;;;;;;;9.88;3.80;;;10.90;69.70;;;;;;2286646;56;20987;-67
2021/03/23 08:08:40;;;;;;;10.05;4.57;;;11.00;71.10;;;;;;2521175;55;21806;-65
2021/03/23 08:14:56;;;;;;;8.90;4.03;;;11.10;69.80;;;;;;2287258;56;21030;-66
2021/03/23 08:24:23;;;;;;;8.15;3.85;;;11.40;70.10;;;;;;2282457;56;21018;-66
2021/03/23 08:27:26;;;;;;;7.00;3.55;;;11.80;70.30;;;;;;2286929;56;20951;-66
2021/03/23 08:32:36;;;;;;;7.80;3.78;;;11.90;71.40;;;;;;2500456;55;20967;-65
2021/03/23 08:38:32;;;;;;;8.13;4.07;;;12.20;70.80;;;;;;2521504;55;20875;-66
2021/03/23 08:41:37;;;;;;;9.02;4.35;;;12.40;71.60;;;;;;2518314;55;20990;-66
2021/03/23 08:44:05;;;;;;;10.57;5.57;;;12.60;71.70;;;;;;2275340;56;20927;-66
2021/03/23 08:46:34;;;;;;;13.95;5.90;;;12.80;72.30;;;;;;2498864;55;21074;-67
2021/03/23 08:49:15;;;;;;;13.18;6.35;;;12.90;72.10;;;;;;2519332;55;20939;-66
2021/03/23 08:51:47;;;;;;;10.35;5.95;;;13.00;71.30;;;;;;2276292;55;21031;-66
2021/03/23 08:54:49;;;;;;;14.50;6.60;;;13.10;72.00;;;;;;2267248;56;20985;-66
2021/03/23 08:57:17;;;;;;;12.75;6.32;;;13.20;70.70;;;;;;2266565;56;21450;-66
2021/03/23 08:59:45;;;;;;;11.90;6.72;;;13.30;72.20;;;;;;2501506;55;20954;-66
2021/03/23 09:02:56;;;;;;;9.85;6.10;;;13.50;72.20;;;;;;2502178;55;21550;-66
2021/03/23 09:05:30;;;;;;;9.90;5.90;;;13.70;69.40;;;;;;2286980;55;21050;-66
2021/03/23 09:09:50;;;;;;;10.95;6.12;;;13.70;70.80;;;;;;2286610;56;21023;-67
2021/03/23 09:12:40;;;;;;;10.52;5.75;;;13.80;68.80;;;;;;2516158;55;20983;-67
2021/03/23 09:15:25;;;;;;;10.98;6.05;;;13.90;68.70;;;;;;2493613;55;21030;-66
2021/03/23 09:18:06;;;;;;;10.07;5.82;;;13.90;68.20;;;;;;2278676;56;20994;-66
2021/03/23 09:20:56;;;;;;;10.52;6.75;;;13.90;69.40;;;;;;2521135;55;20943;-66
2021/03/23 09:23:43;;;;;;;15.45;7.25;;;14.00;67.70;;;;;;2271052;55;20994;-67
2021/03/23 09:26:37;;;;;;;13.73;7.47;;;14.00;67.30;;;;;;2520954;55;20959;-66
2021/03/23 09:29:40;;;;;;;12.63;7.82;;;14.00;67.10;;;;;;2287251;56;20954;-66
2021/03/23 09:32:24;;;;;;;11.82;7.32;;;13.90;66.30;;;;;;2521266;55;20975;-67
2021/03/23 09:35:12;;;;;;;12.20;7.32;;;13.80;66.30;;;;;;2268207;56;21512;-67
2021/03/23 09:38:39;;;;;;;15.77;7.55;;;13.80;66.00;;;;;;2520403;55;21776;-66
2021/03/23 09:41:32;;;;;;;10.20;6.45;;;13.70;65.20;;;;;;2276904;55;20946;-67
2021/03/23 09:44:42;;;;;;;10.75;6.72;;;13.70;66.80;;;;;;2520483;55;21443;-66
2021/03/23 09:47:21;;;;;;;10.90;6.60;;;13.70;65.60;;;;;;2277812;55;22267;-66
2021/03/23 09:49:49;;;;;;;11.00;6.97;;;13.70;67.70;;;;;;2521896;55;20983;-66
2021/03/23 09:52:20;;;;;;;13.30;7.87;;;13.60;67.70;;;;;;2286599;56;21510;-66
2021/03/23 09:55:00;;;;;;;10.93;7.12;;;13.70;67.30;;;;;;2520898;55;21031;-66
2021/03/23 09:57:30;;;;;;;;;;;13.70;67.20;;;;;;2289896;56;21824;-65
2021/03/23 10:00:29;;;;;;;11.88;6.35;;;13.70;65.90;;;;;;2288898;55;20084;-67
2021/03/23 10:02:55;;;;;;;13.07;6.95;;;13.70;66.70;;;;;;2273901;56;21122;-66
2021/03/23 10:05:28;;;;;;;14.15;7.50;;;13.60;67.70;;;;;;2287247;56;20942;-66
2021/03/23 10:08:12;;;;;;;14.75;8.02;;;13.70;67.40;;;;;;2495727;55;20963;-66
2021/03/23 10:10:40;;;;;;;12.52;7.45;;;13.70;66.60;;;;;;2521657;55;21428;-66
2021/03/23 10:13:26;;;;;;;13.13;7.80;;;13.60;67.40;;;;;;2287333;56;21476;-66
2021/03/23 10:15:56;;;;;;;10.80;6.90;;;13.70;66.10;;;;;;2262185;55;21471;-66
2021/03/23 10:18:29;;;;;;;11.02;6.82;;;13.70;67.50;;;;;;2269292;56;20997;-67
2021/03/23 10:21:06;;;;;;;12.23;7.10;;;13.70;67.20;;;;;;2286592;55;20939;-66
2021/03/23 10:23:32;;;;;;;12.70;7.22;;;13.70;67.20;;;;;;2503562;55;21024;-66
2021/03/23 10:26:02;;;;;;;10.75;6.95;;;13.70;67.70;;;;;;2270976;56;20963;-66
2021/03/23 10:28:37;;;;;;;12.98;6.97;;;13.70;67.50;;;;;;2267832;56;20978;-66
2021/03/23 10:31:08;;;;;;;12.07;6.82;;;13.70;67.00;;;;;;2273084;55;21376;-66
2021/03/23 10:33:36;;;;;;;14.00;7.47;;;13.70;67.00;;;;;;2284513;56;21015;-66
2021/03/23 10:36:11;;;;;;;11.57;7.45;;;13.80;67.30;;;;;;2287259;56;21729;-66
2021/03/23 10:38:40;;;;;;;11.32;7.18;;;13.80;67.20;;;;;;2286470;56;20967;-66
2021/03/23 10:42:58;;;;;;;12.20;7.50;;;13.80;67.10;;;;;;2278237;56;21003;-66
2021/03/23 10:46:00;;;;;;;11.20;5.87;;;13.90;65.70;;;;;;2290847;56;20959;-66
2021/03/23 10:48:38;;;;;;;10.95;6.03;;;13.90;65.70;;;;;;2269262;56;20990;-66
2021/03/23 10:51:25;;;;;;;9.65;5.57;;;14.00;67.00;;;;;;2501155;55;21002;-67
2021/03/23 10:54:38;;;;;;;11.02;5.65;;;14.00;66.30;;;;;;2286509;56;20994;-66
2021/03/23 10:57:27;;;;;;;12.13;6.25;;;14.10;67.00;;;;;;2521763;55;20986;-67
2021/03/23 10:59:55;;;;;;;10.95;6.22;;;14.20;67.00;;;;;;2521116;55;20963;-66
2021/03/23 11:02:27;;;;;;;8.95;5.75;;;14.30;68.70;;;;;;2286561;56;21031;-67
2021/03/23 11:05:27;;;;;;;;;;;14.40;68.70;;;;;;2289932;56;21778;-67
2021/03/23 11:08:02;;;;;;;9.73;5.35;;;14.50;66.70;;;;;;2285000;55;20169;-66
2021/03/23 11:10:31;;;;;;;8.63;5.20;;;14.60;68.90;;;;;;2251458;56;21030;-67
2021/03/23 11:12:58;;;;;;;8.40;4.78;;;14.70;68.40;;;;;;2475052;55;21082;-66
2021/03/23 11:15:32;;;;;;;7.93;4.75;;;14.70;67.60;;;;;;2502546;55;20969;-67
2021/03/23 11:18:01;;;;;;;9.07;5.40;;;14.80;66.80;;;;;;2477357;55;21633;-67
2021/03/23 11:20:35;;;;;;;9.55;5.57;;;14.80;66.90;;;;;;2258726;56;20939;-67
2021/03/23 11:23:20;;;;;;;10.57;5.20;;;14.80;66.40;;;;;;2520738;55;20950;-67
2021/03/23 11:25:48;;;;;;;8.95;4.57;;;14.80;65.80;;;;;;2286990;56;21744;-66
2021/03/23 11:28:18;;;;;;;8.75;4.95;;;14.80;66.00;;;;;;2271455;56;20992;-66
2021/03/23 11:30:46;;;;;;;8.35;4.28;;;14.80;65.20;;;;;;2286620;56;21030;-66
2021/03/23 11:33:13;;;;;;;7.25;4.00;;;14.80;65.40;;;;;;2521759;55;21010;-67
2021/03/23 11:35:55;;;;;;;7.20;4.03;;;14.80;65.20;;;;;;2287702;56;20931;-66
2021/03/23 11:38:21;;;;;;;7.22;3.60;;;14.70;65.00;;;;;;2522394;55;20983;-66
2021/03/23 11:40:49;;;;;;;7.72;4.28;;;14.70;65.20;;;;;;2272170;56;21594;-67
2021/03/23 11:43:32;;;;;;;7.30;3.97;;;14.60;65.00;;;;;;2285414;56;21022;-66
2021/03/23 11:46:41;;;;;;;8.20;4.18;;;14.70;64.50;;;;;;2286473;56;20966;-66
2021/03/23 11:49:12;;;;;;;6.45;3.65;;;14.70;63.50;;;;;;2513460;55;22180;-66
2021/03/23 11:51:42;;;;;;;6.65;3.75;;;14.70;65.10;;;;;;2273266;56;20958;-66
2021/03/23 11:54:09;;;;;;;7.37;4.37;;;14.70;65.00;;;;;;2289153;56;21464;-66
2021/03/23 11:56:36;;;;;;;6.40;3.75;;;14.60;65.00;;;;;;2268470;56;20958;-67
2021/03/23 11:59:04;;;;;;;6.70;3.92;;;14.60;65.10;;;;;;2519946;55;20971;-67
2021/03/23 12:01:32;;;;;;;7.25;3.55;;;14.70;65.30;;;;;;2267290;56;21025;-66
2021/03/23 12:03:58;;;;;;;7.47;4.45;;;14.70;65.30;;;;;;2493735;55;21018;-66
2021/03/23 12:06:42;;;;;;;7.97;4.20;;;14.70;65.40;;;;;;2270256;56;20943;-66
2021/03/23 12:09:17;;;;;;;7.37;4.43;;;14.70;64.30;;;;;;2267576;56;21038;-67
2021/03/23 12:11:57;;;;;;;6.97;3.60;;;14.80;64.60;;;;;;2285635;56;21038;-66
2021/03/23 12:15:20;;;;;;;8.43;4.43;;;14.80;65.30;;;;;;2501623;55;20982;-66
2021/03/23 12:17:50;;;;;;;5.62;3.40;;;14.90;64.90;;;;;;2268517;56;20954;-67
2021/03/23 12:20:19;;;;;;;6.75;3.28;;;15.00;66.30;;;;;;2520735;55;21483;-66
2021/03/23 12:22:46;;;;;;;5.75;3.40;;;15.00;66.10;;;;;;2279939;56;20950;-66
2021/03/23 12:25:14;;;;;;;5.93;3.22;;;15.10;65.90;;;;;;2279537;56;21003;-67
2021/03/23 12:27:42;;;;;;;6.32;3.53;;;15.20;65.70;;;;;;2268013;55;20943;-67
2021/03/23 12:30:15;;;;;;;4.80;2.62;;;15.20;65.60;;;;;;2287280;56;21049;-66
2021/03/23 12:32:41;;;;;;;8.05;3.00;;;15.30;65.80;;;;;;2287986;56;21465;-66
2021/03/23 12:35:12;;;;;;;5.18;2.50;;;15.30;65.80;;;;;;2520973;55;20987;-67
2021/03/23 12:37:39;;;;;;;7.05;3.00;;;15.40;65.70;;;;;;2521479;55;21423;-66
2021/03/23 12:40:07;;;;;;;6.15;3.10;;;15.40;66.00;;;;;;2521401;55;21629;-66
2021/03/23 12:42:33;;;;;;;6.00;3.30;;;15.50;66.40;;;;;;2521614;55;21495;-67
2021/03/23 12:45:00;;;;;;;6.70;3.17;;;15.60;66.60;;;;;;2521230;55;20955;-66
2021/03/23 12:47:27;;;;;;;6.53;3.40;;;15.80;66.70;;;;;;2273514;56;20962;-67
2021/03/23 12:49:53;;;;;;;6.15;2.97;;;15.90;66.60;;;;;;2516216;55;20978;-67
2021/03/23 12:52:23;;;;;;;5.12;2.85;;;15.90;66.10;;;;;;2286842;56;20938;-66
2021/03/23 12:54:50;;;;;;;5.53;3.30;;;16.00;65.80;;;;;;2521375;55;20951;-67
2021/03/23 12:57:22;;;;;;;5.57;2.95;;;16.10;65.30;;;;;;2268110;56;21871;-66
2021/03/23 12:59:52;;;;;;;4.93;2.65;;;16.10;64.30;;;;;;2495513;55;21328;-67
2021/03/23 13:02:26;;;;;;;5.43;2.92;;;16.10;64.50;;;;;;2495158;55;21455;-66
2021/03/23 13:04:54;;;;;;;4.50;2.87;;;16.10;63.40;;;;;;2500994;55;20966;-67
2021/03/23 13:07:26;;;;;;;5.78;3.10;;;16.10;64.10;;;;;;2515876;55;21634;-68
2021/03/23 13:09:54;;;;;;;6.75;3.10;;;16.10;64.00;;;;;;2522156;55;20975;-67
2021/03/23 13:12:22;;;;;;;6.05;3.17;;;16.10;63.90;;;;;;2257555;56;21604;-67
2021/03/23 13:14:48;;;;;;;4.95;2.62;;;16.00;63.40;;;;;;2513204;55;21455;-66
2021/03/23 13:17:16;;;;;;;5.00;2.83;;;16.00;63.30;;;;;;2496635;55;21094;-66
2021/03/23 13:19:43;;;;;;;6.85;3.10;;;16.00;63.10;;;;;;2519734;55;21748;-67
2021/03/23 13:22:15;;;;;;;7.85;3.00;;;15.90;62.90;;;;;;2511887;55;21107;-67
2021/03/23 13:24:45;;;;;;;4.03;2.30;;;15.90;62.50;;;;;;2506032;55;21398;-66
2021/03/23 13:27:45;;;;;;;5.85;2.85;;;15.80;62.50;;;;;;2287451;56;21577;-67
2021/03/23 13:30:23;;;;;;;5.30;2.65;;;15.80;60.10;;;;;;2512407;55;21034;-67
2021/03/23 13:32:51;;;;;;;4.47;2.55;;;15.70;61.90;;;;;;2508137;55;21017;-67
2021/03/23 13:35:17;;;;;;;4.97;2.97;;;15.60;62.40;;;;;;2499745;55;20998;-68
2021/03/23 13:37:45;;;;;;;4.82;2.60;;;15.60;62.30;;;;;;2502978;55;21014;-67
2021/03/23 13:40:32;;;;;;;4.93;2.80;;;15.50;62.20;;;;;;2279789;56;20963;-68
2021/03/23 13:43:03;;;;;;;6.80;3.10;;;15.50;60.50;;;;;;2287012;55;20982;-67
2021/03/23 13:45:39;;;;;;;5.50;2.83;;;15.40;62.50;;;;;;2503905;55;20980;-68
2021/03/23 13:48:22;;;;;;;4.95;2.58;;;15.40;62.00;;;;;;2267614;55;21038;-67
2021/03/23 13:50:49;;;;;;;5.68;2.87;;;15.40;61.80;;;;;;2283765;55;21555;-65
2021/03/23 13:53:16;;;;;;;5.97;3.20;;;15.40;63.00;;;;;;2253504;55;21097;-68
2021/03/23 13:55:44;;;;;;;4.70;2.60;;;15.20;62.80;;;;;;2515479;55;21864;-66
2021/03/23 13:58:11;;;;;;;6.50;3.05;;;15.30;62.80;;;;;;2267087;56;21058;-68
2021/03/23 14:00:39;;;;;;;6.32;3.12;;;15.30;62.90;;;;;;2522526;55;20932;-66
2021/03/23 14:03:07;;;;;;;5.97;3.10;;;15.30;62.90;;;;;;2522359;55;20967;-66
2021/03/23 14:05:36;;;;;;;5.03;2.90;;;15.40;63.10;;;;;;2522936;55;21027;-66
2021/03/23 14:08:05;;;;;;;5.50;3.25;;;15.40;63.20;;;;;;2502964;55;20931;-68
2021/03/23 14:10:31;;;;;;;6.32;2.80;;;15.40;63.00;;;;;;2490186;55;21417;-67
2021/03/23 14:12:59;;;;;;;5.70;2.75;;;15.40;63.40;;;;;;2277747;55;20922;-66